Time;durP1;ratioP1;P1;durP2;ratioP2;P2;SDS_P1;SDS_P2;PMS_P1;PMS_P2;Temp;Humidity;BMP_temperature;BMP_pressure;BME280_temperature;BME280_humidity;BME280_pressure;Samples;Min_cycle;Max_cycle;Signal;HPM_P1;HPM_P2
2022/02/11 00:06:13;;;;;;;;;;;;;;;9.43;81.18;100116.64;1764032;80;20198;-82
2022/02/11 00:08:19;;;;;;;;;;;;;;;9.21;81.82;100123.14;1757879;80;21291;-81
2022/02/11 00:10:45;;;;;;;;;;;;;;;9.00;81.40;100127.87;1764148;80;20171;-81
2022/02/11 00:13:11;;;;;;;;;;;;;;;8.98;81.58;100122.75;1768759;80;20139;-82
2022/02/11 00:15:43;;;;;;;;;;;;;;;9.22;80.96;100115.59;1766152;80;20156;-82
2022/02/11 00:18:14;;;;;;;;;;;;;;;8.85;82.96;100132.28;1759880;80;21129;-82
2022/02/11 00:20:39;;;;;;;;;;;;;;;8.84;83.42;100129.33;1767000;80;20135;-81
2022/02/11 00:23:06;;;;;;;;;;;;;;;8.84;83.07;100142.48;1766526;79;20306;-82
2022/02/11 00:25:37;;;;;;;;;;;;;;;8.41;83.43;100157.00;1765385;80;20211;-81
2022/02/11 00:31:12;;;;;;;;;;;;;;;8.78;80.74;100148.34;1761348;80;21246;-83
2022/02/11 00:35:59;;;;;;;;;;;;;;;8.85;80.61;100148.08;1749162;81;20132;-82
2022/02/11 00:38:29;;;;;;;;;;;;;;;8.75;81.96;100153.89;1748357;81;20121;-80
2022/02/11 00:46:21;;;;;;;;;;;;;;;8.98;80.85;100167.52;1750031;82;20142;-81
2022/02/11 01:04:40;;;;;;;;;;;;;;;8.55;78.90;100177.62;1750809;81;20122;-79
2022/02/11 01:07:06;;;;;;;;;;;;;;;8.32;79.42;100192.05;1750534;81;20254;-80
2022/02/11 01:09:33;;;;;;;;;;;;;;;8.56;78.61;100185.87;1749792;81;21953;-81
2022/02/11 01:12:02;;;;;;;;;;;;;;;8.34;79.46;100183.52;1749153;81;20158;-80
2022/02/11 01:17:09;;;;;;;;;;;;;;;8.49;79.68;100170.30;1750217;81;20499;-80
2022/02/11 01:19:36;;;;;;;;;;;;;;;8.24;80.56;100177.78;1748659;81;20138;-80
2022/02/11 01:22:08;;;;;;;;;;;;;;;8.26;80.69;100166.66;1748761;81;20087;-80
2022/02/11 01:30:21;;;;;;;;;;;;;;;8.41;79.88;100183.31;1745084;81;20616;-82
2022/02/11 01:35:02;;;;;;;;;;;;;;;8.03;80.27;100204.72;1751150;79;20118;-83
2022/02/11 01:37:31;;;;;;;;;;;;;;;7.79;81.87;100174.41;1751372;81;20168;-82
2022/02/11 01:48:36;;;;;;;;;;;;;;;8.36;79.26;100181.56;1752741;81;20124;-83
2022/02/11 01:53:21;;;;;;;;;;;;;;;8.51;78.43;100172.30;1753647;81;20450;-80
2022/02/11 02:01:26;;;;;;;;;;;;;;;8.37;78.74;100177.48;1750700;81;20221;-80
2022/02/11 02:04:04;;;;;;;;;;;;;;;8.49;78.48;100170.30;1747745;80;20996;-82
2022/02/11 02:38:31;;;;;;;;;;;;;;;7.75;83.34;100203.24;1761225;79;20221;-80
2022/02/11 02:57:05;;;;;;;;;;;;;;;7.64;82.33;100208.62;1766989;80;20181;-81
2022/02/11 04:52:41;;;;;;;;;;;;;;;7.49;83.27;100239.73;1763548;79;20629;-80
2022/02/11 04:59:52;;;;;;;;;;;;;;;7.36;83.75;100254.40;1762221;80;20178;-81
2022/02/11 05:02:25;;;;;;;;;;;;;;;7.25;84.05;100243.50;1763244;80;20456;-81
2022/02/11 05:04:45;;;;;;;;;;;;;;;7.22;84.20;100245.57;1762782;80;20080;-78
2022/02/11 05:07:11;;;;;;;;;;;;;;;7.18;84.21;100248.46;1767077;80;21022;-80
2022/02/11 05:09:36;;;;;;;;;;;;;;;7.15;84.23;100242.65;1764533;80;20163;-79
2022/02/11 05:12:02;;;;;;;;;;;;;;;7.12;84.32;100239.80;1772142;80;20485;-81
2022/02/11 05:14:28;;;;;;;;;;;;;;;7.06;84.45;100246.88;1764140;80;20160;-79
2022/02/11 05:16:53;;;;;;;;;;;;;;;6.92;84.71;100240.67;1769179;79;20195;-81
2022/02/11 05:19:19;;;;;;;;;;;;;;;7.10;83.99;100233.85;1757785;80;21171;-81
2022/02/11 05:21:44;;;;;;;;;;;;;;;7.15;83.99;100239.53;1764973;79;20153;-82
2022/02/11 05:24:10;;;;;;;;;;;;;;;7.23;83.27;100240.68;1762559;79;20159;-83
2022/02/11 05:26:36;;;;;;;;;;;;;;;7.12;83.55;100238.48;1763447;79;20177;-81
2022/02/11 05:29:01;;;;;;;;;;;;;;;7.13;83.33;100244.09;1765710;79;20742;-81
2022/02/11 05:31:27;;;;;;;;;;;;;;;6.96;84.16;100248.62;1767880;80;20239;-81
2022/02/11 05:33:52;;;;;;;;;;;;;;;7.07;83.89;100255.13;1760641;80;20181;-81
2022/02/11 05:36:18;;;;;;;;;;;;;;;7.09;83.95;100250.56;1767942;79;20125;-82
2022/02/11 05:38:44;;;;;;;;;;;;;;;7.13;84.03;100253.28;1759567;80;20616;-82
2022/02/11 05:41:10;;;;;;;;;;;;;;;7.00;84.02;100252.66;1770616;79;20133;-83
2022/02/11 05:43:36;;;;;;;;;;;;;;;7.34;82.90;100252.39;1768470;80;21116;-82
2022/02/11 05:46:02;;;;;;;;;;;;;;;7.45;82.31;100256.23;1765572;80;20202;-80
2022/02/11 05:48:27;;;;;;;;;;;;;;;7.40;82.36;100256.30;1763452;80;20155;-81
2022/02/11 05:50:53;;;;;;;;;;;;;;;7.36;82.48;100246.52;1764066;80;20493;-84
2022/02/11 05:53:18;;;;;;;;;;;;;;;7.44;82.32;100253.73;1768171;80;20141;-81
2022/02/11 05:55:44;;;;;;;;;;;;;;;7.35;82.53;100255.38;1763607;80;21143;-80
2022/02/11 05:58:09;;;;;;;;;;;;;;;7.32;82.81;100263.52;1767090;80;20136;-81
2022/02/11 06:00:35;;;;;;;;;;;;;;;7.46;82.25;100264.47;1764540;80;20180;-81
2022/02/11 06:03:01;;;;;;;;;;;;;;;7.77;81.27;100266.20;1772717;80;20163;-81
2022/02/11 06:05:26;;;;;;;;;;;;;;;7.84;80.85;100264.70;1764282;80;20159;-81
2022/02/11 06:07:52;;;;;;;;;;;;;;;7.84;80.57;100262.07;1767021;80;21243;-82
2022/02/11 06:10:17;;;;;;;;;;;;;;;7.70;81.55;100260.66;1763013;80;20283;-83
2022/02/11 06:12:43;;;;;;;;;;;;;;;7.62;81.29;100265.27;1776965;80;20119;-81
2022/02/11 06:15:09;;;;;;;;;;;;;;;7.71;81.58;100267.09;1762107;80;20133;-81
2022/02/11 06:17:35;;;;;;;;;;;;;;;7.76;81.36;100262.75;1754773;80;20231;-79
2022/02/11 06:20:00;;;;;;;;;;;;;;;7.90;81.26;100263.67;1768894;80;20994;-81
2022/02/11 06:22:27;;;;;;;;;;;;;;;7.89;80.72;100262.02;1756289;79;20861;-81
2022/02/11 06:24:53;;;;;;;;;;;;;;;8.07;80.26;100263.98;1760468;80;20511;-81
2022/02/11 06:27:19;;;;;;;;;;;;;;;8.16;80.14;100261.84;1762168;80;20196;-80
2022/02/11 06:29:44;;;;;;;;;;;;;;;8.23;79.59;100262.95;1768524;79;20285;-81
2022/02/11 06:32:10;;;;;;;;;;;;;;;8.19;79.26;100256.30;1766815;80;21210;-78
2022/02/11 06:34:35;;;;;;;;;;;;;;;8.34;79.10;100254.56;1760760;80;20208;-81
2022/02/11 06:37:01;;;;;;;;;;;;;;;8.46;78.81;100264.50;1755865;80;20202;-82
2022/02/11 06:39:26;;;;;;;;;;;;;;;8.46;78.28;100267.95;1760265;80;20102;-82
2022/02/11 06:41:52;;;;;;;;;;;;;;;8.39;78.34;100266.81;1764242;80;20217;-80
2022/02/11 06:44:18;;;;;;;;;;;;;;;8.49;78.56;100271.63;1766734;80;21835;-80
2022/02/11 06:46:44;;;;;;;;;;;;;;;8.62;78.39;100278.76;1770099;80;20181;-80
2022/02/11 06:49:09;;;;;;;;;;;;;;;8.75;78.15;100264.47;1753224;80;20139;-79
2022/02/11 06:51:35;;;;;;;;;;;;;;;8.54;77.60;100268.08;1764259;80;20126;-81
2022/02/11 06:54:00;;;;;;;;;;;;;;;8.56;77.64;100270.11;1764947;80;20123;-82
2022/02/11 06:56:26;;;;;;;;;;;;;;;8.40;77.91;100267.98;1756050;80;21999;-80
2022/02/11 06:58:53;;;;;;;;;;;;;;;8.56;78.18;100276.69;1764185;80;20143;-79
2022/02/11 07:01:20;;;;;;;;;;;;;;;8.72;78.03;100272.16;1766867;80;20190;-82
2022/02/11 07:03:46;;;;;;;;;;;;;;;8.78;77.53;100278.67;1763552;80;20179;-81
2022/02/11 07:06:11;;;;;;;;;;;;;;;8.86;77.23;100285.37;1726460;82;20133;-81
2022/02/11 07:08:37;;;;;;;;;;;;;;;8.83;76.65;100284.33;1750817;81;21012;-82
2022/02/11 07:11:03;;;;;;;;;;;;;;;8.85;77.02;100279.75;1748862;80;20153;-81
2022/02/11 07:13:28;;;;;;;;;;;;;;;8.79;76.76;100292.16;1750063;80;20211;-81
2022/02/11 07:15:54;;;;;;;;;;;;;;;8.63;77.28;100294.87;1751441;81;20166;-83
2022/02/11 07:18:19;;;;;;;;;;;;;;;8.59;77.40;100293.52;1748413;81;20757;-79
2022/02/11 07:20:45;;;;;;;;;;;;;;;8.35;78.37;100293.89;1754048;81;21074;-80
2022/02/11 07:23:12;;;;;;;;;;;;;;;8.41;78.36;100301.73;1757670;80;20184;-81
2022/02/11 07:25:39;;;;;;;;;;;;;;;8.46;78.38;100302.17;1753991;80;20152;-80
2022/02/11 07:28:05;;;;;;;;;;;;;;;8.56;78.02;100305.64;1751458;81;20174;-80
2022/02/11 07:30:30;;;;;;;;;;;;;;;8.64;78.07;100308.89;1754478;80;20129;-80
2022/02/11 07:32:56;;;;;;;;;;;;;;;8.57;78.15;100305.14;1753382;80;21167;-79
2022/02/11 07:35:22;;;;;;;;;;;;;;;8.41;78.18;100305.67;1752769;81;20241;-80
2022/02/11 07:37:47;;;;;;;;;;;;;;;8.53;77.84;100303.28;1700663;82;20244;-81
2022/02/11 07:40:13;;;;;;;;;;;;;;;8.62;77.75;100297.19;1743624;80;20114;-82
2022/02/11 07:42:41;;;;;;;;;;;;;;;8.68;77.10;100305.48;1713615;81;20152;-80
2022/02/11 07:45:08;;;;;;;;;;;;;;;8.65;77.26;100303.13;1748215;80;21116;-79
2022/02/11 07:47:33;;;;;;;;;;;;;;;8.72;77.57;100298.98;1747340;81;20885;-80
2022/02/11 07:49:59;;;;;;;;;;;;;;;8.57;77.07;100303.33;1750381;81;20125;-80
2022/02/11 07:52:25;;;;;;;;;;;;;;;8.61;77.87;100303.41;1745256;81;20667;-84
2022/02/11 07:54:50;;;;;;;;;;;;;;;8.69;77.62;100302.71;1746736;81;20148;-81
2022/02/11 07:57:17;;;;;;;;;;;;;;;8.62;77.42;100303.77;1746941;81;21051;-82
2022/02/11 07:59:44;;;;;;;;;;;;;;;8.71;77.12;100295.99;1747522;81;20173;-83
2022/02/11 08:02:10;;;;;;;;;;;;;;;8.73;77.54;100301.94;1749578;81;20467;-82
2022/02/11 08:04:37;;;;;;;;;;;;;;;8.66;77.79;100294.27;1746749;80;20137;-81
2022/02/11 08:07:03;;;;;;;;;;;;;;;8.63;77.62;100293.56;1754681;81;20169;-82
2022/02/11 08:09:29;;;;;;;;;;;;;;;8.74;77.62;100302.30;1755005;81;21915;-83
2022/02/11 08:11:57;;;;;;;;;;;;;;;8.88;77.30;100286.55;1746323;81;20192;-82
2022/02/11 08:14:23;;;;;;;;;;;;;;;8.93;77.35;100291.73;1751010;81;20541;-84
2022/02/11 08:16:49;;;;;;;;;;;;;;;8.76;77.55;100295.07;1744098;81;20191;-82
2022/02/11 08:19:18;;;;;;;;;;;;;;;8.86;77.51;100294.59;1749829;81;20244;-81
2022/02/11 08:21:42;;;;;;;;;;;;;;;8.94;77.47;100293.38;1750285;81;20153;-81
2022/02/11 08:24:08;;;;;;;;;;;;;;;8.70;78.08;100295.63;1750808;81;20349;-83
2022/02/11 08:26:33;;;;;;;;;;;;;;;8.86;78.18;100292.45;1746828;80;20149;-84
2022/02/11 08:28:59;;;;;;;;;;;;;;;8.81;78.05;100295.50;1744169;81;20585;-78
2022/02/11 08:31:25;;;;;;;;;;;;;;;8.40;80.08;100297.42;1752226;81;20154;-79
2022/02/11 08:33:51;;;;;;;;;;;;;;;8.66;79.89;100296.91;1744224;80;21109;-79
2022/02/11 08:36:19;;;;;;;;;;;;;;;8.73;79.73;100300.16;1759475;80;20092;-78
2022/02/11 08:38:45;;;;;;;;;;;;;;;8.66;80.01;100302.98;1771114;79;20197;-81
2022/02/11 08:41:10;;;;;;;;;;;;;;;8.79;80.04;100302.69;1769741;79;20141;-77
2022/02/11 08:43:36;;;;;;;;;;;;;;;8.85;79.71;100294.23;1766688;80;20272;-79
2022/02/11 08:46:01;;;;;;;;;;;;;;;9.00;79.55;100291.17;1750179;81;21169;-76
2022/02/11 08:48:27;;;;;;;;;;;;;;;8.95;79.92;100295.05;1746460;81;20794;-78
2022/02/11 08:50:53;;;;;;;;;;;;;;;8.83;80.15;100298.81;1764335;80;20220;-80
2022/02/11 08:53:22;;;;;;;;;;;;;;;8.97;79.84;100298.86;1771790;80;20628;-79
2022/02/11 08:55:46;;;;;;;;;;;;;;;8.83;79.42;100304.08;1772422;80;20168;-82
2022/02/11 08:58:11;;;;;;;;;;;;;;;8.57;75.31;100300.70;1751698;81;21139;-79
2022/02/11 09:00:37;;;;;;;;;;;;;;;8.69;77.14;100307.16;1742976;81;20491;-78
2022/02/11 09:03:02;;;;;;;;;;;;;;;8.56;79.18;100295.58;1774756;80;20160;-78
2022/02/11 09:05:28;;;;;;;;;;;;;;;8.81;78.64;100284.97;1750159;81;20436;-82
2022/02/11 09:08:00;;;;;;;;;;;;;;;8.89;78.76;100282.45;1736164;81;20281;-80
2022/02/11 09:10:27;;;;;;;;;;;;;;;8.91;79.34;100281.81;1746011;80;21295;-80
2022/02/11 09:12:54;;;;;;;;;;;;;;;8.48;82.32;100283.11;1755051;81;20314;-79
2022/02/11 09:15:21;;;;;;;;;;;;;;;8.71;80.46;100279.70;1740718;81;20169;-79
2022/02/11 09:17:47;;;;;;;;;;;;;;;8.71;80.66;100288.09;1742727;80;21010;-79
2022/02/11 09:20:13;;;;;;;;;;;;;;;8.67;80.87;100294.13;1762436;80;20160;-77
2022/02/11 09:22:38;;;;;;;;;;;;;;;8.75;81.08;100288.17;1774646;80;21102;-79
2022/02/11 09:25:05;;;;;;;;;;;;;;;8.81;80.79;100279.70;1777774;80;20151;-77
2022/02/11 09:27:30;;;;;;;;;;;;;;;8.90;78.23;100278.85;1770238;80;20112;-78
2022/02/11 09:29:56;;;;;;;;;;;;;;;8.67;80.53;100288.02;1773701;79;20175;-79
2022/02/11 09:32:21;;;;;;;;;;;;;;;8.87;80.06;100289.67;1775054;79;20584;-79
2022/02/11 09:34:47;;;;;;;;;;;;;;;8.98;80.14;100292.62;1762956;79;20447;-78
2022/02/11 09:37:13;;;;;;;;;;;;;;;8.88;79.47;100299.21;1751727;81;20197;-79
2022/02/11 09:39:38;;;;;;;;;;;;;;;8.91;78.72;100296.30;1742837;80;20232;-76
2022/02/11 09:42:04;;;;;;;;;;;;;;;8.77;78.83;100312.55;1746668;80;20206;-79
2022/02/11 09:44:32;;;;;;;;;;;;;;;9.02;78.57;100301.89;1747035;80;20256;-79
2022/02/11 09:46:57;;;;;;;;;;;;;;;9.06;78.80;100294.52;1745515;80;20947;-78
2022/02/11 09:49:23;;;;;;;;;;;;;;;9.13;78.07;100295.13;1740840;81;20169;-77
2022/02/11 09:51:50;;;;;;;;;;;;;;;9.16;78.46;100301.92;1747372;80;20183;-77
2022/02/11 09:54:19;;;;;;;;;;;;;;;9.34;78.02;100289.66;1753348;80;20557;-77
2022/02/11 09:56:44;;;;;;;;;;;;;;;9.35;78.71;100289.16;1752249;81;20219;-78
2022/02/11 09:59:10;;;;;;;;;;;;;;;9.53;77.87;100290.56;1755071;81;22400;-77
2022/02/11 10:01:38;;;;;;;;;;;;;;;9.33;78.76;100294.58;1748447;80;20195;-78
2022/02/11 10:04:12;;;;;;;;;;;;;;;9.44;78.00;100291.42;1750733;80;20241;-79
2022/02/11 10:06:37;;;;;;;;;;;;;;;9.27;78.54;100291.20;1744524;80;20245;-78
2022/02/11 10:09:04;;;;;;;;;;;;;;;9.02;78.70;100295.80;1742506;81;20165;-77
2022/02/11 10:11:30;;;;;;;;;;;;;;;9.10;79.20;100292.78;1741474;81;21131;-78
2022/02/11 10:13:56;;;;;;;;;;;;;;;9.05;77.03;100287.61;1745561;80;21275;-79
2022/02/11 10:16:25;;;;;;;;;;;;;;;9.26;77.09;100284.30;1746693;81;20167;-79
2022/02/11 10:18:53;;;;;;;;;;;;;;;9.20;76.79;100282.23;1752052;80;20196;-79
2022/02/11 10:21:23;;;;;;;;;;;;;;;9.43;75.98;100276.11;1749842;80;20223;-79
2022/02/11 10:23:51;;;;;;;;;;;;;;;9.34;76.08;100278.30;1751458;80;21171;-82
2022/02/11 10:26:18;;;;;;;;;;;;;;;9.44;75.68;100276.93;1711767;81;37781;-79
2022/02/11 10:28:48;;;;;;;;;;;;;;;9.39;75.45;100285.77;1756271;80;20198;-83
2022/02/11 10:31:21;;;;;;;;;;;;;;;9.34;75.27;100276.48;1743426;80;20138;-80
2022/02/11 10:34:09;;;;;;;;;;;;;;;9.44;75.38;100275.61;1755899;80;20251;-81
2022/02/11 10:36:40;;;;;;;;;;;;;;;9.48;75.01;100277.81;1751626;81;21113;-83
2022/02/11 10:39:19;;;;;;;;;;;;;;;9.43;75.29;100271.30;1754176;81;20139;-79
2022/02/11 10:41:54;;;;;;;;;;;;;;;9.39;75.47;100279.18;1754042;80;20271;-77
2022/02/11 10:44:22;;;;;;;;;;;;;;;9.11;76.44;100275.19;1752258;81;20181;-78
2022/02/11 10:46:54;;;;;;;;;;;;;;;9.04;75.88;100283.31;1766625;80;20502;-79
2022/02/11 10:49:38;;;;;;;;;;;;;;;9.02;75.29;100281.31;1769434;79;20934;-78
2022/02/11 10:52:20;;;;;;;;;;;;;;;9.20;75.13;100284.86;1770534;80;20640;-79
2022/02/11 10:54:49;;;;;;;;;;;;;;;8.96;73.34;100286.19;1777228;79;20316;-78
2022/02/11 10:57:15;;;;;;;;;;;;;;;8.80;73.75;100289.88;1767460;80;20344;-78
2022/02/11 10:59:44;;;;;;;;;;;;;;;8.74;74.92;100295.71;1773325;79;20196;-81
2022/02/11 11:02:14;;;;;;;;;;;;;;;8.72;74.63;100295.03;1766527;79;21202;-80
2022/02/11 11:04:39;;;;;;;;;;;;;;;8.91;74.61;100287.08;1766957;80;20201;-81
2022/02/11 11:07:06;;;;;;;;;;;;;;;8.95;74.37;100275.80;1770659;80;20194;-81
2022/02/11 11:09:33;;;;;;;;;;;;;;;8.98;73.21;100275.02;1770010;79;20200;-79
2022/02/11 11:12:00;;;;;;;;;;;;;;;9.09;73.19;100267.89;1772156;80;20203;-80
2022/02/11 11:14:27;;;;;;;;;;;;;;;9.11;72.42;100269.42;1767910;80;21177;-79
2022/02/11 11:16:54;;;;;;;;;;;;;;;8.90;72.66;100268.78;1760556;80;20340;-79
2022/02/11 11:19:19;;;;;;;;;;;;;;;8.72;73.96;100267.38;1763517;80;20129;-80
2022/02/11 11:22:11;;;;;;;;;;;;;;;8.86;73.42;100266.94;1769155;80;20205;-81
2022/02/11 11:24:22;;;;;;;;;;;;;;;8.95;72.98;100271.34;1767418;80;20166;-81
2022/02/11 11:26:47;;;;;;;;;;;;;;;8.92;73.43;100271.63;1767509;80;22659;-79
2022/02/11 11:29:18;;;;;;;;;;;;;;;8.91;72.42;100267.33;1766440;80;20100;-81
2022/02/11 11:31:57;;;;;;;;;;;;;;;8.94;72.37;100267.54;1762498;80;20109;-80
2022/02/11 11:34:27;;;;;;;;;;;;;;;8.81;72.17;100263.91;1767181;80;20171;-81
2022/02/11 11:36:56;;;;;;;;;;;;;;;8.89;73.02;100261.37;1770783;80;20176;-80
2022/02/11 11:39:22;;;;;;;;;;;;;;;8.85;73.64;100265.27;1763265;80;21124;-79
2022/02/11 11:42:10;;;;;;;;;;;;;;;8.89;73.03;100261.37;1760253;80;20133;-81
2022/02/11 11:44:53;;;;;;;;;;;;;;;8.67;73.67;100271.76;1756756;80;20169;-81
2022/02/11 11:47:29;;;;;;;;;;;;;;;8.71;73.65;100265.72;1755822;79;20182;-79
2022/02/11 11:49:55;;;;;;;;;;;;;;;8.48;73.38;100271.27;1759305;79;20132;-81
2022/02/11 11:52:21;;;;;;;;;;;;;;;8.57;73.31;100270.43;1755167;80;21170;-79
2022/02/11 11:54:46;;;;;;;;;;;;;;;8.70;73.42;100258.78;1772754;79;20175;-80
2022/02/11 11:57:14;;;;;;;;;;;;;;;8.50;73.76;100267.18;1759287;80;20779;-79
2022/02/11 11:59:48;;;;;;;;;;;;;;;8.57;74.12;100259.91;1761343;80;20163;-79
2022/02/11 12:02:19;;;;;;;;;;;;;;;8.48;74.76;100265.19;1754952;80;20192;-80
2022/02/11 12:04:51;;;;;;;;;;;;;;;8.48;74.81;100273.90;1756508;80;21226;-77
2022/02/11 12:07:22;;;;;;;;;;;;;;;8.51;74.62;100264.91;1757342;80;20510;-79
2022/02/11 12:09:49;;;;;;;;;;;;;;;8.45;74.75;100263.65;1758552;80;20188;-80
2022/02/11 12:12:18;;;;;;;;;;;;;;;8.37;74.83;100268.75;1760294;80;20178;-79
2022/02/11 12:14:44;;;;;;;;;;;;;;;8.16;75.79;100268.91;1757796;80;20180;-80
2022/02/11 12:17:11;;;;;;;;;;;;;;;8.01;76.30;100269.78;1756628;80;21166;-79
2022/02/11 12:19:37;;;;;;;;;;;;;;;7.92;76.57;100258.27;1758509;80;20141;-80
2022/02/11 12:22:06;;;;;;;;;;;;;;;7.83;77.50;100253.36;1752798;80;20473;-80
2022/02/11 12:27:20;;;;;;;;;;;;;;;7.84;76.65;100249.75;1758065;80;20158;-80
2022/02/11 12:30:03;;;;;;;;;;;;;;;8.08;76.67;100256.44;1762086;80;21142;-80
2022/02/11 12:32:43;;;;;;;;;;;;;;;7.87;75.87;100252.60;1754061;80;20203;-80
2022/02/11 12:35:11;;;;;;;;;;;;;;;7.98;76.64;100250.33;1761895;80;20245;-79
2022/02/11 12:37:39;;;;;;;;;;;;;;;7.89;76.54;100247.56;1753362;80;20234;-80
2022/02/11 12:40:14;;;;;;;;;;;;;;;7.78;76.50;100245.03;1750147;80;20137;-80
2022/02/11 12:42:42;;;;;;;;;;;;;;;7.50;77.24;100246.17;1754461;80;22453;-80
2022/02/11 12:45:09;;;;;;;;;;;;;;;7.77;77.70;100246.02;1753404;80;20255;-80
2022/02/11 12:47:35;;;;;;;;;;;;;;;7.96;76.57;100247.02;1750193;80;20567;-81
2022/02/11 12:50:01;;;;;;;;;;;;;;;7.88;76.42;100253.78;1758452;80;20181;-79
2022/02/11 12:52:29;;;;;;;;;;;;;;;7.83;75.33;100255.14;1755764;80;20132;-80
2022/02/11 12:55:01;;;;;;;;;;;;;;;7.73;76.81;100249.88;1751341;80;20985;-78
2022/02/11 12:57:26;;;;;;;;;;;;;;;7.53;77.58;100256.88;1750074;80;20175;-79
2022/02/11 12:59:53;;;;;;;;;;;;;;;7.59;77.45;100252.89;1759979;80;20152;-79
2022/02/11 13:02:23;;;;;;;;;;;;;;;7.43;78.13;100262.11;1753849;80;20194;-81
2022/02/11 13:05:05;;;;;;;;;;;;;;;7.28;78.66;100258.17;1755038;80;20207;-79
2022/02/11 13:07:31;;;;;;;;;;;;;;;6.94;79.73;100262.36;1752601;80;21097;-80
2022/02/11 13:09:56;;;;;;;;;;;;;;;7.01;79.23;100262.20;1761029;80;20181;-80
2022/02/11 13:12:22;;;;;;;;;;;;;;;7.25;78.87;100262.38;1752003;80;20477;-81
2022/02/11 13:14:47;;;;;;;;;;;;;;;7.22;78.49;100260.02;1754215;80;20102;-82
2022/02/11 13:17:13;;;;;;;;;;;;;;;7.17;78.79;100270.42;1753344;80;20532;-81
2022/02/11 13:19:38;;;;;;;;;;;;;;;7.26;78.20;100266.19;1751366;80;20575;-81
2022/02/11 13:22:04;;;;;;;;;;;;;;;7.43;78.65;100268.67;1750424;80;20134;-82
2022/02/11 13:24:31;;;;;;;;;;;;;;;7.51;78.18;100260.95;1753742;80;20135;-81
2022/02/11 13:26:58;;;;;;;;;;;;;;;7.54;78.60;100260.69;1753702;80;20562;-84
2022/02/11 13:29:24;;;;;;;;;;;;;;;7.50;78.94;100261.94;1753762;80;20503;-80
2022/02/11 13:31:51;;;;;;;;;;;;;;;7.45;78.64;100261.48;1756044;80;21172;-83
2022/02/11 13:34:17;;;;;;;;;;;;;;;7.54;78.45;100267.25;1749756;80;20131;-81
2022/02/11 13:36:48;;;;;;;;;;;;;;;7.39;79.25;100269.89;1757826;80;20254;-80
2022/02/11 13:39:10;;;;;;;;;;;;;;;7.19;79.25;100271.14;1756421;80;20169;-83
2022/02/11 13:41:39;;;;;;;;;;;;;;;7.10;79.58;100277.18;1759067;80;20134;-80
2022/02/11 13:44:11;;;;;;;;;;;;;;;7.06;79.53;100282.33;1755515;80;20970;-81
2022/02/11 13:46:40;;;;;;;;;;;;;;;6.89;80.73;100281.62;1755950;80;20179;-85
2022/02/11 13:49:10;;;;;;;;;;;;;;;6.71;81.77;100286.14;1754040;81;21001;-84
2022/02/11 13:51:36;;;;;;;;;;;;;;;6.62;81.60;100300.84;1704202;81;20219;-83
2022/02/11 13:54:12;;;;;;;;;;;;;;;6.56;81.90;100299.22;1755855;80;20482;-85
2022/02/11 13:56:39;;;;;;;;;;;;;;;6.39;82.82;100301.42;1756365;80;21992;-82
2022/02/11 13:59:15;;;;;;;;;;;;;;;6.35;83.04;100297.38;1757815;80;20197;-83
2022/02/11 14:01:45;;;;;;;;;;;;;;;6.31;82.88;100306.47;1742805;80;20617;-80
2022/02/11 14:04:12;;;;;;;;;;;;;;;5.99;84.88;100309.88;1727117;82;20126;-80
2022/02/11 14:06:49;;;;;;;;;;;;;;;6.13;84.17;100316.64;1759558;81;20332;-80
2022/02/11 14:09:35;;;;;;;;;;;;;;;6.18;83.76;100321.52;1758962;80;21111;-81
2022/02/11 14:12:00;;;;;;;;;;;;;;;6.14;84.72;100318.78;1756946;80;20620;-81
2022/02/11 14:14:25;;;;;;;;;;;;;;;6.26;84.51;100321.73;1723501;81;20175;-84
2022/02/11 14:16:51;;;;;;;;;;;;;;;6.37;84.12;100332.66;1730347;81;20146;-81
2022/02/11 14:19:27;;;;;;;;;;;;;;;6.57;82.97;100335.83;1722159;81;20249;-82
2022/02/11 14:21:58;;;;;;;;;;;;;;;6.19;83.31;100338.93;1735388;81;21213;-81
2022/02/11 14:24:24;;;;;;;;;;;;;;;6.20;82.91;100340.58;1732373;81;20952;-80
2022/02/11 14:26:50;;;;;;;;;;;;;;;5.90;83.29;100351.21;1755214;80;20114;-81
2022/02/11 14:29:16;;;;;;;;;;;;;;;6.19;82.80;100345.48;1757955;80;20173;-80
2022/02/11 14:31:42;;;;;;;;;;;;;;;6.30;82.42;100346.76;1722562;81;20208;-84
2022/02/11 14:34:09;;;;;;;;;;;;;;;6.04;82.94;100354.91;1729615;81;21182;-81
2022/02/11 14:36:39;;;;;;;;;;;;;;;6.04;83.04;100356.70;1757545;80;21114;-80
2022/02/11 14:39:02;;;;;;;;;;;;;;;6.08;82.62;100364.20;1741922;80;20126;-81
2022/02/11 14:44:24;;;;;;;;;;;;;;;6.38;81.89;100366.64;1733522;80;20477;-79
2022/02/11 14:46:51;;;;;;;;;;;;;;;6.27;82.15;100365.36;1735278;80;21160;-80
2022/02/11 14:49:21;;;;;;;;;;;;;;;6.13;82.92;100373.50;1736655;81;20150;-80
2022/02/11 14:51:51;;;;;;;;;;;;;;;6.21;82.23;100385.52;1732583;80;20476;-80
2022/02/11 14:54:16;;;;;;;;;;;;;;;6.15;82.25;100395.19;1742899;80;20344;-82
2022/02/11 14:56:42;;;;;;;;;;;;;;;6.35;82.24;100396.22;1736691;81;20154;-80
2022/02/11 14:59:08;;;;;;;;;;;;;;;6.28;81.61;100406.37;1741540;81;20954;-79
2022/02/11 15:01:40;;;;;;;;;;;;;;;6.22;81.90;100406.86;1738791;81;21294;-81
2022/02/11 15:04:06;;;;;;;;;;;;;;;6.10;81.84;100405.55;1735509;81;20611;-81
2022/02/11 15:06:32;;;;;;;;;;;;;;;6.09;82.31;100407.83;1700354;82;20177;-79
2022/02/11 15:08:57;;;;;;;;;;;;;;;6.16;81.94;100406.86;1743927;81;20292;-83
2022/02/11 15:11:23;;;;;;;;;;;;;;;5.95;82.35;100411.99;1739579;81;21162;-81
2022/02/11 15:13:49;;;;;;;;;;;;;;;5.95;82.33;100418.55;1747800;81;20173;-81
2022/02/11 15:16:14;;;;;;;;;;;;;;;5.67;83.24;100415.44;1746266;81;20149;-81
2022/02/11 15:18:40;;;;;;;;;;;;;;;5.52;83.80;100413.98;1746033;81;20443;-80
2022/02/11 15:21:06;;;;;;;;;;;;;;;5.49;84.27;100410.29;1742018;81;20137;-79
2022/02/11 15:23:36;;;;;;;;;;;;;;;5.46;84.38;100417.07;1745823;80;21013;-80
2022/02/11 15:26:02;;;;;;;;;;;;;;;5.30;85.21;100429.16;1750028;81;20731;-81
2022/02/11 15:28:29;;;;;;;;;;;;;;;5.24;85.41;100425.23;1744370;81;20503;-80
2022/02/11 15:30:54;;;;;;;;;;;;;;;5.18;85.91;100432.23;1745624;81;20174;-79
2022/02/11 15:33:20;;;;;;;;;;;;;;;4.96;86.59;100429.90;1748680;81;20183;-79
2022/02/11 15:35:46;;;;;;;;;;;;;;;5.01;86.82;100436.92;1749883;81;21077;-78
2022/02/11 15:38:11;;;;;;;;;;;;;;;4.85;87.64;100432.48;1742522;80;20813;-80
2022/02/11 15:40:37;;;;;;;;;;;;;;;4.96;87.52;100439.06;1738836;81;20266;-80
2022/02/11 15:43:02;;;;;;;;;;;;;;;4.98;87.53;100438.95;1737970;81;20151;-80
2022/02/11 15:45:28;;;;;;;;;;;;;;;4.92;87.82;100437.60;1744650;80;20217;-79
2022/02/11 15:47:54;;;;;;;;;;;;;;;5.21;87.05;100442.48;1742863;80;21083;-81
2022/02/11 15:50:19;;;;;;;;;;;;;;;5.17;87.09;100451.05;1744290;80;21029;-82
2022/02/11 15:52:45;;;;;;;;;;;;;;;4.95;88.15;100443.92;1743378;80;20241;-79
2022/02/11 15:55:11;;;;;;;;;;;;;;;5.17;86.93;100447.58;1740569;80;20182;-79
2022/02/11 15:57:37;;;;;;;;;;;;;;;4.91;87.71;100449.48;1738053;80;20753;-81
2022/02/11 16:00:04;;;;;;;;;;;;;;;5.08;87.59;100456.11;1740290;81;20703;-80
2022/02/11 16:02:29;;;;;;;;;;;;;;;4.77;88.46;100463.58;1738094;81;20167;-81
2022/02/11 16:04:55;;;;;;;;;;;;;;;4.49;89.31;100461.66;1735344;81;20189;-79
2022/02/11 16:07:20;;;;;;;;;;;;;;;4.55;89.63;100469.03;1735536;81;20150;-81
2022/02/11 16:09:49;;;;;;;;;;;;;;;4.62;89.75;100474.69;1741072;81;20153;-80
2022/02/11 16:12:13;;;;;;;;;;;;;;;4.68;89.02;100472.45;1741311;81;20113;-80
2022/02/11 16:14:39;;;;;;;;;;;;;;;4.41;90.80;100476.58;1738757;81;20271;-80
2022/02/11 16:17:05;;;;;;;;;;;;;;;4.38;91.44;100487.70;1736740;81;20151;-80
2022/02/11 16:19:30;;;;;;;;;;;;;;;4.48;91.06;100483.52;1732069;81;21191;-78
2022/02/11 16:21:56;;;;;;;;;;;;;;;4.54;91.03;100485.69;1734849;80;20148;-81
2022/02/11 16:24:22;;;;;;;;;;;;;;;4.24;92.41;100499.13;1734671;81;21178;-81
2022/02/11 16:26:47;;;;;;;;;;;;;;;4.53;91.37;100499.70;1739506;81;20930;-81
2022/02/11 16:29:13;;;;;;;;;;;;;;;4.61;90.76;100504.39;1737113;81;20272;-80
2022/02/11 16:31:38;;;;;;;;;;;;;;;4.40;91.86;100518.52;1736343;81;20134;-80
2022/02/11 16:34:04;;;;;;;;;;;;;;;4.41;92.15;100519.73;1734757;81;20148;-80
2022/02/11 16:36:30;;;;;;;;;;;;;;;4.38;92.71;100521.70;1739479;81;20481;-78
2022/02/11 16:38:56;;;;;;;;;;;;;;;4.64;91.30;100523.31;1751263;79;20130;-81